• Join FlightAware (Why Join?)
  • Login
  • US Flag 
Rudolph Flight #1: Scheduled 
08:16PM EST


 

Airport Tracker/Info


-or-


 

Live Flight TrackerFlight Track Log ✈ EJA831 ✈ 04-May-2013 ✈ KMSN - KGCK

Flight Track Log - Related Links

Times and Time Zones

All times are in EDT time to prevent confusion due to time zone crossing. See the EJA831 flight status page for this flight to view local times or setup timezone preferences in your user account.

Time Position Orientation Groundspeed Altitude Reporting Facility
EDT Latitude Longitude Course Direction KTS MPH feet Rate Location/Type
11:07AM 43.1725 -89.3753 292° West 206 237 2,600  Level Chicago Center
11:08AM 43.1944 -89.4492 292° West 245 282 6,600 3,480 Climbing Chicago Center
11:09AM 43.1492 -89.5389 235° Southwest 283 326 9,800 2,580 Climbing Chicago Center
11:10AM 43.1139 -89.6550 247° West 331 381 11,900 1,980 Climbing Chicago Center
11:11AM 43.0783 -89.7831 249° West 356 410 13,900 1,980 Climbing Chicago Center
11:12AM 43.0261 -89.9136 241° Southwest 342 394 16,000 1,800 Climbing Chicago Center
11:13AM 42.9831 -90.0261 242° Southwest 347 399 17,600 1,440 Climbing Chicago Center
11:14AM 42.9381 -90.1442 243° Southwest 352 405 19,000 1,200 Climbing Chicago Center
11:15AM 42.8883 -90.2756 243° Southwest 388 447 20,100 1,260 Climbing Chicago Center
11:16AM 42.8350 -90.4094 242° Southwest 403 464 21,600 1,440 Climbing Chicago Center
11:17AM 42.7833 -90.5442 242° Southwest 404 465 23,100 1,440 Climbing Chicago Center
11:18AM 42.7203 -90.7078 242° Southwest 410 472 24,600 1,260 Climbing Chicago Center
11:19AM 42.6656 -90.8475 242° Southwest 417 480 25,700 660 Climbing Chicago Center
11:20AM 42.6103 -90.9886 242° Southwest 424 488 26,000 120 Climbing Chicago Center
11:21AM 42.5533 -91.1342 242° Southwest 435 501 26,000  Level Chicago Center
11:22AM 42.4964 -91.2778 242° Southwest 434 499 26,000  Level Chicago Center
11:23AM 42.4375 -91.4228 241° Southwest 438 504 26,000  Level Chicago Center
11:25AM 42.3797 -91.5658 241° Southwest 434 499 26,000  Level Chicago Center
11:26AM 42.3228 -91.7097 242° Southwest 434 499 26,000  Level Chicago Center
11:27AM 42.2650 -91.8519 241° Southwest 433 498 26,000  Level Chicago Center
11:28AM 42.1961 -92.0208 241° Southwest 431 496 26,000  Level Chicago Center
11:29AM 42.1386 -92.1631 241° Southwest 433 498 26,000  Level Chicago Center
11:30AM 42.0797 -92.3042 241° Southwest 433 498 26,000  Level Chicago Center
11:31AM 42.0217 -92.4458 241° Southwest 434 499 26,000  Level Chicago Center
11:32AM 41.9622 -92.5883 241° Southwest 439 505 26,000  Level Chicago Center
11:33AM 41.9039 -92.7294 241° Southwest 437 503 26,000  Level Chicago Center
11:34AM 41.8444 -92.8686 240° Southwest 435 501 26,000  Level Chicago Center
11:35AM 41.7731 -93.0392 241° Southwest 438 504 26,000  Level Chicago Center
11:36AM 41.7139 -93.1772 240° Southwest 440 506 26,000  Level Chicago Center
11:37AM 41.6539 -93.3186 240° Southwest 439 505 26,000  Level Minneapolis Center
11:38AM 41.5939 -93.4589 240° Southwest 439 505 26,000  Level Minneapolis Center
11:39AM 41.5211 -93.6292 240° Southwest 442 509 26,000  Level Minneapolis Center
11:40AM 41.4614 -93.7672 240° Southwest 440 506 26,000  Level Minneapolis Center
11:41AM 41.4003 -93.9086 240° Southwest 442 509 26,000  Level Minneapolis Center
11:42AM 41.3386 -94.0514 240° Southwest 447 514 26,000  Level Minneapolis Center
11:43AM 41.2767 -94.1925 240° Southwest 448 516 26,000  Level Minneapolis Center
11:44AM 41.2100 -94.3428 240° Southwest 448 516 26,000  Level Minneapolis Center
11:45AM 41.1383 -94.5044 240° Southwest 450 518 26,000  Level Minneapolis Center
11:46AM 41.0825 -94.6297 239° Southwest 451 519 26,000  Level Minneapolis Center
11:47AM 41.0181 -94.7744 239° Southwest 452 520 26,000  Level Minneapolis Center
11:48AM 40.9397 -94.9469 239° Southwest 454 522 26,000  Level Minneapolis Center
11:49AM 40.8744 -95.0911 239° Southwest 455 524 26,000  Level Minneapolis Center
11:50AM 40.8094 -95.2344 239° Southwest 455 524 26,000  Level Minneapolis Center
11:51AM 40.7442 -95.3775 239° Southwest 453 521 26,000  Level Minneapolis Center
11:52AM 40.6922 -95.4919 239° Southwest 452 520 26,000  Level Minneapolis Center
11:53AM 40.6139 -95.6619 239° Southwest 450 518 26,000  Level Minneapolis Center
11:54AM 40.5481 -95.8056 239° Southwest 453 521 26,000  Level Minneapolis Center
11:55AM 40.4822 -95.9464 238° Southwest 452 520 26,000  Level Minneapolis Center
11:57AM 40.4164 -96.0872 238° Southwest 451 519 26,000  Level Minneapolis Center
11:58AM 40.3358 -96.2572 238° Southwest 454 522 26,000  Level Minneapolis Center
11:59AM 40.2706 -96.3969 239° Southwest 452 520 26,000  Level Minneapolis Center
12:00PM 40.1911 -96.5647 238° Southwest 451 519 26,000  Level Minneapolis Center
12:01PM 40.1244 -96.7050 238° Southwest 452 520 26,000  Level Minneapolis Center
12:02PM 40.0589 -96.8431 238° Southwest 450 518 26,000  Level Minneapolis Center
12:03PM 39.9922 -96.9825 238° Southwest 450 518 26,000  Level Minneapolis Center
12:04PM 39.9264 -97.1197 238° Southwest 449 517 26,000  Level Minneapolis Center
12:05PM 39.8719 -97.2294 237° Southwest 449 517 26,000  Level Minneapolis Center
12:06PM 39.7861 -97.4075 238° Southwest 450 518 26,000  Level Minneapolis Center
12:07PM 39.7247 -97.5328 238° Southwest 451 519 26,000  Level Minneapolis Center
12:08PM 39.6514 -97.6811 237° Southwest 447 514 26,000  Level Minneapolis Center
12:09PM 39.5850 -97.8181 238° Southwest 449 517 26,000  Level Kansas City Center
12:10PM 39.5206 -97.9461 237° Southwest 453 521 26,000  Level Kansas City Center
12:11PM 39.4406 -98.1042 237° Southwest 447 514 26,000  Level Kansas City Center
12:12PM 39.3825 -98.2250 238° Southwest 443 510 26,000  Level Kansas City Center
12:13PM 39.3150 -98.3597 237° Southwest 445 512 26,000  Level Kansas City Center
12:14PM 39.2486 -98.4928 237° Southwest 441 507 26,000  Level Kansas City Center
12:15PM 39.1739 -98.6372 236° Southwest 441 507 26,000  Level Kansas City Center
12:16PM 39.1083 -98.7675 237° Southwest 435 501 26,000  Level Kansas City Center
12:17PM 39.0431 -98.8961 237° Southwest 431 496 26,000  Level Kansas City Center
12:18PM 38.9767 -99.0242 236° Southwest 431 496 26,000  Level Kansas City Center
12:19PM 38.9114 -99.1522 237° Southwest 430 495 26,000  Level Kansas City Center
12:20PM 38.8461 -99.2772 236° Southwest 426 490 26,000 -600 Level Kansas City Center
12:21PM 38.7583 -99.4189 232° Southwest 423 487 24,800 -1,260 Descending Kansas City Center
12:22PM 38.6872 -99.5300 231° Southwest 410 472 23,500 -1,740 Descending Kansas City Center
12:23PM 38.6119 -99.6494 231° Southwest 403 464 21,300 -2,100 Descending Kansas City Center
12:24PM 38.5475 -99.7536 232° Southwest 394 453 19,200 -1,860 Descending Kansas City Center
12:25PM 38.4825 -99.8544 231° Southwest 387 445 17,600 -1,740 Descending Kansas City Center
12:26PM 38.4100 -99.9672 231° Southwest 372 428 15,700 -1,920 Descending Kansas City Center
12:27PM 38.3481 -100.0625 230° Southwest 367 422 13,800 -1,800 Descending Kansas City Center
12:28PM 38.2808 -100.1703 232° Southwest 352 405 12,100 -1,560 Descending Kansas City Center
12:29PM 38.2217 -100.2589 230° Southwest 346 398 10,700 -1,380 Descending Kansas City Center
12:30PM 38.1706 -100.3397 231° Southwest 320 368 9,300 -1,560 Descending Kansas City Center
12:31PM 38.1108 -100.4297 230° Southwest 306 352 7,600 -1,560 Descending Kansas City Center
12:32PM 38.0628 -100.5042 231° Southwest 294 338 6,200 -840 Descending Kansas City Center
12:33PM 38.0100 -100.5858 231° Southwest 278 320 6,000 -600 Descending Kansas City Center
12:34PM 37.9708 -100.6439 229° Southwest 245 282 5,000 -780 Descending Kansas City Center
12:35PM 37.9058 -100.6567 189° South 221 254 4,500 -360 Descending Kansas City Center
12:36PM 37.8731 -100.6844 214° Southwest 183 211 4,300 -480 Descending Kansas City Center
12:37PM 37.8817 -100.7222 286° West 139 160 3,600 -720 Descending Kansas City Center